sensor_id;sensor_type;location;lat;lon;timestamp;temperature;humidity
20155;DHT22;10238;49.556;10.956;2023-02-04T00:00:56;5.40;99.90
20155;DHT22;10238;49.556;10.956;2023-02-04T00:03:45;5.40;99.90
20155;DHT22;10238;49.556;10.956;2023-02-04T00:06:33;5.40;99.90
20155;DHT22;10238;49.556;10.956;2023-02-04T00:09:20;5.50;99.90
20155;DHT22;10238;49.556;10.956;2023-02-04T00:12:07;5.40;99.90
20155;DHT22;10238;49.556;10.956;2023-02-04T00:14:56;5.40;99.90
20155;DHT22;10238;49.556;10.956;2023-02-04T00:17:44;5.40;99.90
20155;DHT22;10238;49.556;10.956;2023-02-04T00:20:34;5.40;99.90
20155;DHT22;10238;49.556;10.956;2023-02-04T00:23:21;5.50;99.90
20155;DHT22;10238;49.556;10.956;2023-02-04T00:26:12;5.40;99.90
20155;DHT22;10238;49.556;10.956;2023-02-04T00:29:00;5.40;99.90
20155;DHT22;10238;49.556;10.956;2023-02-04T00:31:47;5.40;99.90
20155;DHT22;10238;49.556;10.956;2023-02-04T00:34:35;5.40;99.90
20155;DHT22;10238;49.556;10.956;2023-02-04T00:37:24;5.50;99.90
20155;DHT22;10238;49.556;10.956;2023-02-04T00:40:13;5.50;99.90
20155;DHT22;10238;49.556;10.956;2023-02-04T00:43:01;5.40;99.90
20155;DHT22;10238;49.556;10.956;2023-02-04T00:45:49;5.50;99.90
20155;DHT22;10238;49.556;10.956;2023-02-04T00:48:36;5.50;99.90
20155;DHT22;10238;49.556;10.956;2023-02-04T00:51:24;5.60;99.90
20155;DHT22;10238;49.556;10.956;2023-02-04T00:54:13;5.40;99.90
20155;DHT22;10238;49.556;10.956;2023-02-04T00:57:01;5.50;99.90
20155;DHT22;10238;49.556;10.956;2023-02-04T00:59:49;5.40;99.90
20155;DHT22;10238;49.556;10.956;2023-02-04T01:02:37;5.40;99.90
20155;DHT22;10238;49.556;10.956;2023-02-04T01:05:26;5.50;99.90
20155;DHT22;10238;49.556;10.956;2023-02-04T01:08:13;5.50;99.90
20155;DHT22;10238;49.556;10.956;2023-02-04T01:11:02;5.40;99.90
20155;DHT22;10238;49.556;10.956;2023-02-04T01:13:50;5.40;99.90
20155;DHT22;10238;49.556;10.956;2023-02-04T01:16:39;5.50;99.90
20155;DHT22;10238;49.556;10.956;2023-02-04T01:19:26;5.50;99.90
20155;DHT22;10238;49.556;10.956;2023-02-04T01:22:14;5.50;99.90
20155;DHT22;10238;49.556;10.956;2023-02-04T01:25:01;5.50;99.90
20155;DHT22;10238;49.556;10.956;2023-02-04T01:27:50;5.40;99.90
20155;DHT22;10238;49.556;10.956;2023-02-04T01:30:38;5.40;99.90
20155;DHT22;10238;49.556;10.956;2023-02-04T01:33:25;5.40;99.90
20155;DHT22;10238;49.556;10.956;2023-02-04T01:36:13;5.40;99.90
20155;DHT22;10238;49.556;10.956;2023-02-04T01:39:08;5.40;99.90
20155;DHT22;10238;49.556;10.956;2023-02-04T01:41:57;5.40;99.90
20155;DHT22;10238;49.556;10.956;2023-02-04T01:44:47;5.40;99.90
20155;DHT22;10238;49.556;10.956;2023-02-04T01:47:39;5.40;99.90
20155;DHT22;10238;49.556;10.956;2023-02-04T01:50:27;5.30;99.90
20155;DHT22;10238;49.556;10.956;2023-02-04T01:53:19;5.30;99.90
20155;DHT22;10238;49.556;10.956;2023-02-04T01:56:15;5.40;99.90
20155;DHT22;10238;49.556;10.956;2023-02-04T01:59:10;5.30;99.90
20155;DHT22;10238;49.556;10.956;2023-02-04T02:02:01;5.30;99.90
20155;DHT22;10238;49.556;10.956;2023-02-04T02:04:48;5.30;99.90
20155;DHT22;10238;49.556;10.956;2023-02-04T02:07:36;5.40;99.90
20155;DHT22;10238;49.556;10.956;2023-02-04T02:10:25;5.30;99.90
20155;DHT22;10238;49.556;10.956;2023-02-04T02:13:15;5.30;99.90
20155;DHT22;10238;49.556;10.956;2023-02-04T02:16:05;5.30;99.90
20155;DHT22;10238;49.556;10.956;2023-02-04T02:18:54;5.20;99.90
20155;DHT22;10238;49.556;10.956;2023-02-04T02:21:46;5.30;99.90
20155;DHT22;10238;49.556;10.956;2023-02-04T02:24:41;5.30;99.90
20155;DHT22;10238;49.556;10.956;2023-02-04T02:27:29;5.20;99.90
20155;DHT22;10238;49.556;10.956;2023-02-04T02:30:17;5.20;99.90
20155;DHT22;10238;49.556;10.956;2023-02-04T02:33:05;5.20;99.90
20155;DHT22;10238;49.556;10.956;2023-02-04T02:35:54;5.10;99.90
20155;DHT22;10238;49.556;10.956;2023-02-04T02:38:41;5.10;99.90
20155;DHT22;10238;49.556;10.956;2023-02-04T02:41:31;5.20;99.90
20155;DHT22;10238;49.556;10.956;2023-02-04T02:44:18;5.20;99.90
20155;DHT22;10238;49.556;10.956;2023-02-04T02:47:11;5.10;99.90
20155;DHT22;10238;49.556;10.956;2023-02-04T02:50:00;5.10;99.90
20155;DHT22;10238;49.556;10.956;2023-02-04T02:52:51;5.10;99.90
20155;DHT22;10238;49.556;10.956;2023-02-04T02:55:39;4.90;99.90
20155;DHT22;10238;49.556;10.956;2023-02-04T02:58:31;5.00;99.90
20155;DHT22;10238;49.556;10.956;2023-02-04T03:01:21;4.90;99.90
20155;DHT22;10238;49.556;10.956;2023-02-04T03:04:09;4.90;99.90
20155;DHT22;10238;49.556;10.956;2023-02-04T03:07:08;5.00;99.90
20155;DHT22;10238;49.556;10.956;2023-02-04T03:09:57;4.80;99.90
20155;DHT22;10238;49.556;10.956;2023-02-04T03:12:45;4.90;99.90
20155;DHT22;10238;49.556;10.956;2023-02-04T03:15:37;4.80;99.90
20155;DHT22;10238;49.556;10.956;2023-02-04T03:18:26;4.70;99.90
20155;DHT22;10238;49.556;10.956;2023-02-04T03:21:14;4.70;99.90
20155;DHT22;10238;49.556;10.956;2023-02-04T03:24:02;4.70;99.90
20155;DHT22;10238;49.556;10.956;2023-02-04T03:26:53;4.60;99.90
20155;DHT22;10238;49.556;10.956;2023-02-04T03:29:45;4.60;99.90
20155;DHT22;10238;49.556;10.956;2023-02-04T03:32:34;4.60;99.90
20155;DHT22;10238;49.556;10.956;2023-02-04T03:35:22;4.70;99.90
20155;DHT22;10238;49.556;10.956;2023-02-04T03:38:09;4.60;99.90
20155;DHT22;10238;49.556;10.956;2023-02-04T03:41:03;4.60;99.90
20155;DHT22;10238;49.556;10.956;2023-02-04T03:43:51;4.60;99.90
20155;DHT22;10238;49.556;10.956;2023-02-04T03:46:42;4.60;99.90
20155;DHT22;10238;49.556;10.956;2023-02-04T03:49:30;4.60;99.90
20155;DHT22;10238;49.556;10.956;2023-02-04T03:52:20;4.60;99.90
20155;DHT22;10238;49.556;10.956;2023-02-04T03:55:08;4.60;99.90
20155;DHT22;10238;49.556;10.956;2023-02-04T03:57:56;4.70;99.90
20155;DHT22;10238;49.556;10.956;2023-02-04T04:00:45;4.60;99.90
20155;DHT22;10238;49.556;10.956;2023-02-04T04:03:32;4.50;99.90
20155;DHT22;10238;49.556;10.956;2023-02-04T04:06:21;4.50;99.90
20155;DHT22;10238;49.556;10.956;2023-02-04T04:09:08;4.50;99.90
20155;DHT22;10238;49.556;10.956;2023-02-04T04:11:56;4.50;99.90
20155;DHT22;10238;49.556;10.956;2023-02-04T04:14:44;4.40;99.90
20155;DHT22;10238;49.556;10.956;2023-02-04T04:17:31;4.60;99.90
20155;DHT22;10238;49.556;10.956;2023-02-04T04:20:19;4.40;99.90
20155;DHT22;10238;49.556;10.956;2023-02-04T04:23:11;4.40;99.90
20155;DHT22;10238;49.556;10.956;2023-02-04T04:25:59;4.40;99.90
20155;DHT22;10238;49.556;10.956;2023-02-04T04:28:47;4.30;99.90
20155;DHT22;10238;49.556;10.956;2023-02-04T04:31:34;4.20;99.90
20155;DHT22;10238;49.556;10.956;2023-02-04T04:34:23;4.20;99.90
20155;DHT22;10238;49.556;10.956;2023-02-04T04:37:10;4.10;99.90
20155;DHT22;10238;49.556;10.956;2023-02-04T04:39:59;4.20;99.90
20155;DHT22;10238;49.556;10.956;2023-02-04T04:42:47;4.20;99.90
20155;DHT22;10238;49.556;10.956;2023-02-04T04:45:35;4.10;99.90
20155;DHT22;10238;49.556;10.956;2023-02-04T04:48:23;4.10;99.90
20155;DHT22;10238;49.556;10.956;2023-02-04T04:51:10;4.10;99.90
20155;DHT22;10238;49.556;10.956;2023-02-04T04:53:58;4.10;99.90
20155;DHT22;10238;49.556;10.956;2023-02-04T04:56:47;4.10;99.90
20155;DHT22;10238;49.556;10.956;2023-02-04T04:59:35;4.20;99.90
20155;DHT22;10238;49.556;10.956;2023-02-04T05:02:23;4.10;99.90
20155;DHT22;10238;49.556;10.956;2023-02-04T05:05:11;4.20;99.90
20155;DHT22;10238;49.556;10.956;2023-02-04T05:08:00;4.30;99.90
20155;DHT22;10238;49.556;10.956;2023-02-04T05:10:48;4.20;99.90
20155;DHT22;10238;49.556;10.956;2023-02-04T05:13:37;4.20;99.90
20155;DHT22;10238;49.556;10.956;2023-02-04T05:16:25;4.20;99.90
20155;DHT22;10238;49.556;10.956;2023-02-04T05:19:13;4.10;99.90
20155;DHT22;10238;49.556;10.956;2023-02-04T05:22:00;4.20;99.90
20155;DHT22;10238;49.556;10.956;2023-02-04T05:24:48;4.10;99.90
20155;DHT22;10238;49.556;10.956;2023-02-04T05:27:35;4.30;99.90
20155;DHT22;10238;49.556;10.956;2023-02-04T05:30:24;4.20;99.90
20155;DHT22;10238;49.556;10.956;2023-02-04T05:33:12;4.20;99.90
20155;DHT22;10238;49.556;10.956;2023-02-04T05:35:59;4.20;99.90
20155;DHT22;10238;49.556;10.956;2023-02-04T05:38:47;4.10;99.90
20155;DHT22;10238;49.556;10.956;2023-02-04T05:41:35;4.20;99.90
20155;DHT22;10238;49.556;10.956;2023-02-04T05:44:22;4.20;99.90
20155;DHT22;10238;49.556;10.956;2023-02-04T05:47:14;4.20;99.90
20155;DHT22;10238;49.556;10.956;2023-02-04T05:50:01;4.20;99.90
20155;DHT22;10238;49.556;10.956;2023-02-04T05:52:49;4.10;99.90
20155;DHT22;10238;49.556;10.956;2023-02-04T05:55:37;4.20;99.90
20155;DHT22;10238;49.556;10.956;2023-02-04T05:58:24;4.10;99.90
20155;DHT22;10238;49.556;10.956;2023-02-04T06:01:18;4.10;99.90
20155;DHT22;10238;49.556;10.956;2023-02-04T06:04:07;4.10;99.90
20155;DHT22;10238;49.556;10.956;2023-02-04T06:06:55;4.00;99.90
20155;DHT22;10238;49.556;10.956;2023-02-04T06:09:42;4.10;99.90
20155;DHT22;10238;49.556;10.956;2023-02-04T06:12:30;4.00;99.90
20155;DHT22;10238;49.556;10.956;2023-02-04T06:15:17;4.10;99.90
20155;DHT22;10238;49.556;10.956;2023-02-04T06:18:05;4.00;99.90
20155;DHT22;10238;49.556;10.956;2023-02-04T06:20:55;3.90;99.90
20155;DHT22;10238;49.556;10.956;2023-02-04T06:23:42;3.80;99.90
20155;DHT22;10238;49.556;10.956;2023-02-04T06:26:30;4.00;99.90
20155;DHT22;10238;49.556;10.956;2023-02-04T06:29:17;3.90;99.90
20155;DHT22;10238;49.556;10.956;2023-02-04T06:32:05;3.80;99.90
20155;DHT22;10238;49.556;10.956;2023-02-04T06:34:53;3.80;99.90
20155;DHT22;10238;49.556;10.956;2023-02-04T06:37:42;3.50;99.90
20155;DHT22;10238;49.556;10.956;2023-02-04T06:40:30;3.50;99.90
20155;DHT22;10238;49.556;10.956;2023-02-04T06:43:18;3.40;99.90
20155;DHT22;10238;49.556;10.956;2023-02-04T06:46:06;3.30;99.90
20155;DHT22;10238;49.556;10.956;2023-02-04T06:48:54;3.30;99.90
20155;DHT22;10238;49.556;10.956;2023-02-04T06:51:42;3.30;99.90
20155;DHT22;10238;49.556;10.956;2023-02-04T06:54:31;3.30;99.90
20155;DHT22;10238;49.556;10.956;2023-02-04T06:57:18;3.30;99.90
20155;DHT22;10238;49.556;10.956;2023-02-04T07:00:08;3.30;99.90
20155;DHT22;10238;49.556;10.956;2023-02-04T07:02:58;3.20;99.90
20155;DHT22;10238;49.556;10.956;2023-02-04T07:05:45;3.20;99.90
20155;DHT22;10238;49.556;10.956;2023-02-04T07:08:33;3.20;99.90
20155;DHT22;10238;49.556;10.956;2023-02-04T07:11:22;3.20;99.90
20155;DHT22;10238;49.556;10.956;2023-02-04T07:14:09;3.20;99.90
20155;DHT22;10238;49.556;10.956;2023-02-04T07:16:57;3.20;99.90
20155;DHT22;10238;49.556;10.956;2023-02-04T07:19:44;3.20;99.90
20155;DHT22;10238;49.556;10.956;2023-02-04T07:22:32;3.20;99.90
20155;DHT22;10238;49.556;10.956;2023-02-04T07:25:19;3.10;99.90
20155;DHT22;10238;49.556;10.956;2023-02-04T07:28:08;3.10;99.90
20155;DHT22;10238;49.556;10.956;2023-02-04T07:30:56;3.20;99.90
20155;DHT22;10238;49.556;10.956;2023-02-04T07:33:44;3.10;99.90
20155;DHT22;10238;49.556;10.956;2023-02-04T07:36:31;3.00;99.90
20155;DHT22;10238;49.556;10.956;2023-02-04T07:39:19;3.00;99.90
20155;DHT22;10238;49.556;10.956;2023-02-04T07:42:06;3.10;99.90
20155;DHT22;10238;49.556;10.956;2023-02-04T07:44:55;3.10;99.90
20155;DHT22;10238;49.556;10.956;2023-02-04T07:47:43;2.90;99.90
20155;DHT22;10238;49.556;10.956;2023-02-04T07:50:30;3.00;99.90
20155;DHT22;10238;49.556;10.956;2023-02-04T07:53:18;2.90;99.90
20155;DHT22;10238;49.556;10.956;2023-02-04T07:56:06;3.00;99.90
20155;DHT22;10238;49.556;10.956;2023-02-04T07:58:53;2.90;99.90
20155;DHT22;10238;49.556;10.956;2023-02-04T08:01:42;2.90;99.90
20155;DHT22;10238;49.556;10.956;2023-02-04T08:04:30;3.00;99.90
20155;DHT22;10238;49.556;10.956;2023-02-04T08:07:18;3.00;99.90
20155;DHT22;10238;49.556;10.956;2023-02-04T08:10:07;2.90;99.90
20155;DHT22;10238;49.556;10.956;2023-02-04T08:12:56;3.00;99.90
20155;DHT22;10238;49.556;10.956;2023-02-04T08:15:43;3.00;99.90
20155;DHT22;10238;49.556;10.956;2023-02-04T08:18:33;3.00;99.90
20155;DHT22;10238;49.556;10.956;2023-02-04T08:21:21;3.20;99.90
20155;DHT22;10238;49.556;10.956;2023-02-04T08:24:08;3.20;99.90
20155;DHT22;10238;49.556;10.956;2023-02-04T08:26:56;3.20;99.90
20155;DHT22;10238;49.556;10.956;2023-02-04T08:29:44;3.30;99.90
20155;DHT22;10238;49.556;10.956;2023-02-04T08:32:31;3.30;99.90
20155;DHT22;10238;49.556;10.956;2023-02-04T08:35:20;3.40;99.90
20155;DHT22;10238;49.556;10.956;2023-02-04T08:38:08;3.50;99.90
20155;DHT22;10238;49.556;10.956;2023-02-04T08:40:56;3.60;99.90
20155;DHT22;10238;49.556;10.956;2023-02-04T08:43:45;3.60;99.90
20155;DHT22;10238;49.556;10.956;2023-02-04T08:46:32;3.60;99.90
20155;DHT22;10238;49.556;10.956;2023-02-04T08:49:23;3.70;99.90
20155;DHT22;10238;49.556;10.956;2023-02-04T08:52:12;3.70;99.90
20155;DHT22;10238;49.556;10.956;2023-02-04T08:54:59;3.90;99.90
20155;DHT22;10238;49.556;10.956;2023-02-04T08:57:47;3.90;99.90
20155;DHT22;10238;49.556;10.956;2023-02-04T09:00:34;4.10;99.90
20155;DHT22;10238;49.556;10.956;2023-02-04T09:03:22;3.90;99.90
20155;DHT22;10238;49.556;10.956;2023-02-04T09:06:10;4.00;99.90
20155;DHT22;10238;49.556;10.956;2023-02-04T09:09:00;4.00;99.90
20155;DHT22;10238;49.556;10.956;2023-02-04T09:11:47;4.10;99.90
20155;DHT22;10238;49.556;10.956;2023-02-04T09:14:35;4.00;99.90
20155;DHT22;10238;49.556;10.956;2023-02-04T09:17:22;4.30;99.90
20155;DHT22;10238;49.556;10.956;2023-02-04T09:20:10;4.20;99.90
20155;DHT22;10238;49.556;10.956;2023-02-04T09:31:25;4.30;99.90
20155;DHT22;10238;49.556;10.956;2023-02-04T09:34:12;4.40;99.90
20155;DHT22;10238;49.556;10.956;2023-02-04T09:37:00;4.60;99.90
20155;DHT22;10238;49.556;10.956;2023-02-04T09:39:47;4.50;99.90
20155;DHT22;10238;49.556;10.956;2023-02-04T09:42:36;4.50;99.90
20155;DHT22;10238;49.556;10.956;2023-02-04T09:45:26;4.70;99.90
20155;DHT22;10238;49.556;10.956;2023-02-04T09:48:16;4.80;99.90
20155;DHT22;10238;49.556;10.956;2023-02-04T09:51:05;4.80;99.90
20155;DHT22;10238;49.556;10.956;2023-02-04T09:54:02;4.80;99.90
20155;DHT22;10238;49.556;10.956;2023-02-04T09:56:54;4.80;99.90
20155;DHT22;10238;49.556;10.956;2023-02-04T09:59:45;4.80;99.90
20155;DHT22;10238;49.556;10.956;2023-02-04T10:02:34;4.90;99.90
20155;DHT22;10238;49.556;10.956;2023-02-04T10:05:27;5.00;99.90
20155;DHT22;10238;49.556;10.956;2023-02-04T10:08:17;5.00;99.90
20155;DHT22;10238;49.556;10.956;2023-02-04T10:11:07;5.10;99.90
20155;DHT22;10238;49.556;10.956;2023-02-04T10:13:55;5.00;99.90
20155;DHT22;10238;49.556;10.956;2023-02-04T10:16:53;5.10;99.90
20155;DHT22;10238;49.556;10.956;2023-02-04T10:19:44;5.20;99.90
20155;DHT22;10238;49.556;10.956;2023-02-04T10:25:27;5.10;99.90
20155;DHT22;10238;49.556;10.956;2023-02-04T10:28:15;5.20;99.90
20155;DHT22;10238;49.556;10.956;2023-02-04T10:31:03;5.30;99.90
20155;DHT22;10238;49.556;10.956;2023-02-04T10:34:03;5.40;99.90
20155;DHT22;10238;49.556;10.956;2023-02-04T10:36:54;5.40;99.90
20155;DHT22;10238;49.556;10.956;2023-02-04T10:39:43;5.40;99.90
20155;DHT22;10238;49.556;10.956;2023-02-04T10:42:31;5.30;99.90
20155;DHT22;10238;49.556;10.956;2023-02-04T10:45:23;5.40;99.90
20155;DHT22;10238;49.556;10.956;2023-02-04T10:48:15;5.40;99.90
20155;DHT22;10238;49.556;10.956;2023-02-04T10:51:07;5.50;99.90
20155;DHT22;10238;49.556;10.956;2023-02-04T10:53:58;5.70;99.90
20155;DHT22;10238;49.556;10.956;2023-02-04T10:57:10;5.60;99.90
20155;DHT22;10238;49.556;10.956;2023-02-04T11:00:14;5.70;99.90
20155;DHT22;10238;49.556;10.956;2023-02-04T11:03:06;5.80;99.90
20155;DHT22;10238;49.556;10.956;2023-02-04T11:05:59;5.90;99.90
20155;DHT22;10238;49.556;10.956;2023-02-04T11:08:49;5.90;99.90
20155;DHT22;10238;49.556;10.956;2023-02-04T11:11:44;6.00;99.90
20155;DHT22;10238;49.556;10.956;2023-02-04T11:14:33;6.00;99.90
20155;DHT22;10238;49.556;10.956;2023-02-04T11:17:20;5.90;99.90
20155;DHT22;10238;49.556;10.956;2023-02-04T11:20:28;6.00;99.90
20155;DHT22;10238;49.556;10.956;2023-02-04T11:23:33;6.00;99.90
20155;DHT22;10238;49.556;10.956;2023-02-04T11:26:34;6.10;99.90
20155;DHT22;10238;49.556;10.956;2023-02-04T11:29:28;6.20;99.90
20155;DHT22;10238;49.556;10.956;2023-02-04T11:32:29;6.40;99.90
20155;DHT22;10238;49.556;10.956;2023-02-04T11:35:23;6.50;99.90
20155;DHT22;10238;49.556;10.956;2023-02-04T11:38:24;6.50;99.90
20155;DHT22;10238;49.556;10.956;2023-02-04T11:41:17;6.60;99.90
20155;DHT22;10238;49.556;10.956;2023-02-04T11:44:12;6.70;99.90
20155;DHT22;10238;49.556;10.956;2023-02-04T11:47:06;6.80;99.90
20155;DHT22;10238;49.556;10.956;2023-02-04T11:49:58;6.90;99.90
20155;DHT22;10238;49.556;10.956;2023-02-04T11:52:49;7.00;99.90
20155;DHT22;10238;49.556;10.956;2023-02-04T11:55:43;7.00;99.90
20155;DHT22;10238;49.556;10.956;2023-02-04T11:58:37;7.00;99.90
20155;DHT22;10238;49.556;10.956;2023-02-04T12:01:31;7.10;99.90
20155;DHT22;10238;49.556;10.956;2023-02-04T12:04:23;7.20;99.90
20155;DHT22;10238;49.556;10.956;2023-02-04T12:07:11;7.30;99.90
20155;DHT22;10238;49.556;10.956;2023-02-04T12:10:12;7.40;99.90
20155;DHT22;10238;49.556;10.956;2023-02-04T12:13:15;7.40;99.90
20155;DHT22;10238;49.556;10.956;2023-02-04T12:16:05;7.20;99.90
20155;DHT22;10238;49.556;10.956;2023-02-04T12:18:54;7.10;99.90
20155;DHT22;10238;49.556;10.956;2023-02-04T12:21:42;7.30;99.90
20155;DHT22;10238;49.556;10.956;2023-02-04T12:24:33;7.40;99.90
20155;DHT22;10238;49.556;10.956;2023-02-04T12:27:20;7.30;99.90
20155;DHT22;10238;49.556;10.956;2023-02-04T12:30:09;7.40;99.90
20155;DHT22;10238;49.556;10.956;2023-02-04T12:38:36;7.40;99.90
20155;DHT22;10238;49.556;10.956;2023-02-04T12:41:24;7.60;99.90
20155;DHT22;10238;49.556;10.956;2023-02-04T12:44:12;7.60;99.90
20155;DHT22;10238;49.556;10.956;2023-02-04T12:47:00;7.50;99.90
20155;DHT22;10238;49.556;10.956;2023-02-04T12:52:37;7.20;99.90
20155;DHT22;10238;49.556;10.956;2023-02-04T12:55:27;7.40;99.90
20155;DHT22;10238;49.556;10.956;2023-02-04T13:12:19;7.30;99.90
20155;DHT22;10238;49.556;10.956;2023-02-04T13:15:07;7.50;99.90
20155;DHT22;10238;49.556;10.956;2023-02-04T13:32:00;7.30;99.90
20155;DHT22;10238;49.556;10.956;2023-02-04T13:34:47;7.50;99.90
20155;DHT22;10238;49.556;10.956;2023-02-04T13:37:35;7.40;99.90
20155;DHT22;10238;49.556;10.956;2023-02-04T13:40:23;7.30;99.90
20155;DHT22;10238;49.556;10.956;2023-02-04T13:43:12;7.20;99.90
20155;DHT22;10238;49.556;10.956;2023-02-04T13:48:49;7.20;99.90
20155;DHT22;10238;49.556;10.956;2023-02-04T13:51:36;7.30;99.90
20155;DHT22;10238;49.556;10.956;2023-02-04T13:54:24;7.30;99.90
20155;DHT22;10238;49.556;10.956;2023-02-04T13:57:12;7.20;99.90
20155;DHT22;10238;49.556;10.956;2023-02-04T14:00:04;7.20;99.90
20155;DHT22;10238;49.556;10.956;2023-02-04T14:02:54;7.20;99.90
20155;DHT22;10238;49.556;10.956;2023-02-04T14:05:42;7.30;99.90
20155;DHT22;10238;49.556;10.956;2023-02-04T14:08:30;7.00;99.90
20155;DHT22;10238;49.556;10.956;2023-02-04T14:14:07;6.90;99.90
20155;DHT22;10238;49.556;10.956;2023-02-04T14:22:36;6.90;99.90
20155;DHT22;10238;49.556;10.956;2023-02-04T15:19:06;6.70;99.90
20155;DHT22;10238;49.556;10.956;2023-02-04T15:30:22;6.50;99.90
20155;DHT22;10238;49.556;10.956;2023-02-04T15:38:46;6.30;99.90
20155;DHT22;10238;49.556;10.956;2023-02-04T15:41:36;6.30;99.90
20155;DHT22;10238;49.556;10.956;2023-02-04T15:44:24;6.30;99.90
20155;DHT22;10238;49.556;10.956;2023-02-04T15:47:12;6.20;99.90
20155;DHT22;10238;49.556;10.956;2023-02-04T15:49:59;6.20;99.90
20155;DHT22;10238;49.556;10.956;2023-02-04T15:52:49;6.10;99.90
20155;DHT22;10238;49.556;10.956;2023-02-04T15:55:36;6.10;99.90
20155;DHT22;10238;49.556;10.956;2023-02-04T15:58:25;6.00;99.90
20155;DHT22;10238;49.556;10.956;2023-02-04T16:01:13;6.00;99.90
20155;DHT22;10238;49.556;10.956;2023-02-04T16:04:00;5.90;99.90
20155;DHT22;10238;49.556;10.956;2023-02-04T16:06:48;5.80;99.90
20155;DHT22;10238;49.556;10.956;2023-02-04T16:09:43;5.80;99.90
20155;DHT22;10238;49.556;10.956;2023-02-04T16:12:31;5.50;99.90
20155;DHT22;10238;49.556;10.956;2023-02-04T16:18:08;5.20;99.90
20155;DHT22;10238;49.556;10.956;2023-02-04T16:20:56;5.20;99.90
20155;DHT22;10238;49.556;10.956;2023-02-04T16:26:33;4.90;99.90
20155;DHT22;10238;49.556;10.956;2023-02-04T16:29:20;4.90;99.90
20155;DHT22;10238;49.556;10.956;2023-02-04T16:32:10;4.80;99.90
20155;DHT22;10238;49.556;10.956;2023-02-04T16:35:00;4.70;99.90
20155;DHT22;10238;49.556;10.956;2023-02-04T16:37:49;4.60;99.90
20155;DHT22;10238;49.556;10.956;2023-02-04T16:40:37;4.50;99.90
20155;DHT22;10238;49.556;10.956;2023-02-04T16:43:24;4.40;99.90
20155;DHT22;10238;49.556;10.956;2023-02-04T16:46:12;4.40;99.90
20155;DHT22;10238;49.556;10.956;2023-02-04T16:49:02;4.30;99.90
20155;DHT22;10238;49.556;10.956;2023-02-04T16:51:51;4.10;99.90
20155;DHT22;10238;49.556;10.956;2023-02-04T16:54:39;4.00;99.90
20155;DHT22;10238;49.556;10.956;2023-02-04T16:57:32;4.00;99.90
20155;DHT22;10238;49.556;10.956;2023-02-04T17:00:20;3.80;99.90
20155;DHT22;10238;49.556;10.956;2023-02-04T17:03:09;3.80;99.90
20155;DHT22;10238;49.556;10.956;2023-02-04T17:05:58;3.60;99.90
20155;DHT22;10238;49.556;10.956;2023-02-04T17:08:46;3.60;99.90
20155;DHT22;10238;49.556;10.956;2023-02-04T17:11:34;3.40;99.90
20155;DHT22;10238;49.556;10.956;2023-02-04T17:14:22;3.40;99.90
20155;DHT22;10238;49.556;10.956;2023-02-04T17:17:10;3.20;99.90
20155;DHT22;10238;49.556;10.956;2023-02-04T17:19:58;3.10;99.90
20155;DHT22;10238;49.556;10.956;2023-02-04T17:22:47;3.00;99.90
20155;DHT22;10238;49.556;10.956;2023-02-04T17:25:35;2.90;99.90
20155;DHT22;10238;49.556;10.956;2023-02-04T17:28:23;3.00;99.90
20155;DHT22;10238;49.556;10.956;2023-02-04T17:31:11;2.80;99.90
20155;DHT22;10238;49.556;10.956;2023-02-04T17:33:59;2.60;99.90
20155;DHT22;10238;49.556;10.956;2023-02-04T17:36:48;2.60;99.90
20155;DHT22;10238;49.556;10.956;2023-02-04T17:39:37;2.50;99.90
20155;DHT22;10238;49.556;10.956;2023-02-04T17:42:25;2.40;99.90
20155;DHT22;10238;49.556;10.956;2023-02-04T17:45:13;2.30;99.90
20155;DHT22;10238;49.556;10.956;2023-02-04T17:48:01;2.20;99.90
20155;DHT22;10238;49.556;10.956;2023-02-04T17:50:50;2.10;99.90
20155;DHT22;10238;49.556;10.956;2023-02-04T17:53:38;2.10;99.90
20155;DHT22;10238;49.556;10.956;2023-02-04T17:56:27;2.00;99.90
20155;DHT22;10238;49.556;10.956;2023-02-04T17:59:15;1.80;99.90
20155;DHT22;10238;49.556;10.956;2023-02-04T18:02:10;1.80;99.90
20155;DHT22;10238;49.556;10.956;2023-02-04T18:05:13;1.60;99.90
20155;DHT22;10238;49.556;10.956;2023-02-04T18:08:10;1.60;99.90
20155;DHT22;10238;49.556;10.956;2023-02-04T18:11:01;1.50;99.90
20155;DHT22;10238;49.556;10.956;2023-02-04T18:13:50;1.50;99.90
20155;DHT22;10238;49.556;10.956;2023-02-04T18:16:38;1.40;99.90
20155;DHT22;10238;49.556;10.956;2023-02-04T18:19:31;1.30;99.90
20155;DHT22;10238;49.556;10.956;2023-02-04T18:22:22;1.20;99.90
20155;DHT22;10238;49.556;10.956;2023-02-04T18:25:15;1.20;99.90
20155;DHT22;10238;49.556;10.956;2023-02-04T18:28:12;1.40;99.90
20155;DHT22;10238;49.556;10.956;2023-02-04T18:31:20;1.00;99.90
20155;DHT22;10238;49.556;10.956;2023-02-04T18:34:16;0.90;99.90
20155;DHT22;10238;49.556;10.956;2023-02-04T18:37:25;0.80;99.90
20155;DHT22;10238;49.556;10.956;2023-02-04T18:40:22;0.80;99.90
20155;DHT22;10238;49.556;10.956;2023-02-04T18:43:21;0.70;99.90
20155;DHT22;10238;49.556;10.956;2023-02-04T18:46:22;0.70;99.90
20155;DHT22;10238;49.556;10.956;2023-02-04T18:49:19;0.60;99.90
20155;DHT22;10238;49.556;10.956;2023-02-04T18:52:14;0.50;99.90
20155;DHT22;10238;49.556;10.956;2023-02-04T18:55:17;0.40;99.90
20155;DHT22;10238;49.556;10.956;2023-02-04T18:58:24;0.40;99.90
20155;DHT22;10238;49.556;10.956;2023-02-04T19:01:20;0.20;99.90
20155;DHT22;10238;49.556;10.956;2023-02-04T19:04:19;0.30;99.90
20155;DHT22;10238;49.556;10.956;2023-02-04T19:07:11;0.10;99.90
20155;DHT22;10238;49.556;10.956;2023-02-04T19:10:23;0.10;99.90
20155;DHT22;10238;49.556;10.956;2023-02-04T19:13:18;0.00;99.90
20155;DHT22;10238;49.556;10.956;2023-02-04T19:16:22;-0.10;99.90
20155;DHT22;10238;49.556;10.956;2023-02-04T19:19:34;0.00;99.90
20155;DHT22;10238;49.556;10.956;2023-02-04T19:22:39;-0.20;99.90
20155;DHT22;10238;49.556;10.956;2023-02-04T19:25:32;-0.30;99.90
20155;DHT22;10238;49.556;10.956;2023-02-04T19:28:27;-0.20;99.90
20155;DHT22;10238;49.556;10.956;2023-02-04T19:31:17;-0.40;99.90
20155;DHT22;10238;49.556;10.956;2023-02-04T19:34:20;-0.50;99.90
20155;DHT22;10238;49.556;10.956;2023-02-04T19:37:17;-0.30;99.90
20155;DHT22;10238;49.556;10.956;2023-02-04T20:04:38;-1.00;99.90
20155;DHT22;10238;49.556;10.956;2023-02-04T20:07:36;-1.10;99.90
20155;DHT22;10238;49.556;10.956;2023-02-04T20:10:27;-1.00;99.90
20155;DHT22;10238;49.556;10.956;2023-02-04T20:13:27;-1.10;99.90
20155;DHT22;10238;49.556;10.956;2023-02-04T20:16:49;-1.20;99.90
20155;DHT22;10238;49.556;10.956;2023-02-04T20:19:54;-0.80;99.90
20155;DHT22;10238;49.556;10.956;2023-02-04T20:22:57;-1.30;99.90
20155;DHT22;10238;49.556;10.956;2023-02-04T20:25:53;-1.00;99.90
20155;DHT22;10238;49.556;10.956;2023-02-04T20:28:59;-0.70;99.90
20155;DHT22;10238;49.556;10.956;2023-02-04T20:36:40;-1.60;99.90